Etusivu
METAR-TAF:

METAR-TAF

Lentoasemat :

Hutchinson Municipal Airport (Butler Field)

Hutchinson, Minnesota, Yhdysvallat

Leveyspiiri: 44-52N, Pituuspiiri: 094-23W, korkeus merenpinnasta: 323 m

Tämänhetkinen sää

Tämä raportti tehtiin 29 minuuttia sitten, kello 09.15 UTC
Tuuli 14 kn lännestä/luoteesta puuskistuen 20 kn:hen
Lämpötila 6°C
Kosteus 65%
Ilmanpaine 1017 hPa
Näkyvyys: 16.1 km
selkeää

METAR: KHCD 260915Z AUTO 30014G20KT 10SM CLR 06/00 A3002 RMK AO2 T00620003

Aika: 04:44 (09:44 UTC)


TAF: puuttuu

Säähavainnot ja -ennusteet yli 4000 lentoasemalta (METAR- ja TAF-raportit).

Käytössä olevat sääasemat on merkitty karttaan keltaisilla ja punaisilla pisteillä.

Aseta hiiri pisteen päälle nähdäksesi sääaseman nimen.

Klikkaa sitten nähdäksesi säähavainnot ja -ennusteet.

Kartan vaihtaminen: klikkaa mustalla rastilla varustettuja vihreitä pisteitä, niin voit zoomata sisään; viivalla varustettua vihreää pistettä, niin voit zoomata ulos tai vihreitä nuolia, niin pääset viereisille kartoille.


METAR-TAF: